createdAt,value
2019-04-23T00:00:42.578Z,21.89
2019-04-23T00:02:33.157Z,21.83
2019-04-23T00:03:41.989Z,21.94
2019-04-23T00:04:37.998Z,21.89
2019-04-23T00:06:43.306Z,21.89
2019-04-23T00:07:51.946Z,21.86
2019-04-23T00:08:50.216Z,21.93
2019-04-23T00:09:39.902Z,21.91
2019-04-23T00:10:35.177Z,21.86
2019-04-23T00:11:40.992Z,21.94
2019-04-23T00:12:43.873Z,21.96
2019-04-23T00:13:44.176Z,22.01
2019-04-23T00:14:52.454Z,21.99
2019-04-23T00:15:43.867Z,22.02
2019-04-23T00:16:42.194Z,22.01
2019-04-23T00:17:42.139Z,22.01
2019-04-23T00:18:42.232Z,22.01
2019-04-23T00:19:43.209Z,22.04
2019-04-23T00:20:45.992Z,21.98
2019-04-23T00:21:44.390Z,22.02
2019-04-23T00:22:45.386Z,22.15
2019-04-23T00:23:49.784Z,22.12
2019-04-23T00:25:04.782Z,22.12
2019-04-23T00:26:42.484Z,22.06
2019-04-23T00:28:45.720Z,22.14
2019-04-23T00:29:45.954Z,22.17
2019-04-23T00:31:39.240Z,22.19
2019-04-23T00:33:36.144Z,22.20
2019-04-23T00:34:42.681Z,22.24
2019-04-23T00:35:41.705Z,22.17
2019-04-23T00:36:37.848Z,22.20
2019-04-23T00:37:37.363Z,22.21
2019-04-23T00:38:40.243Z,22.17
2019-04-23T00:39:42.368Z,22.26
2019-04-23T00:40:40.752Z,22.21
2019-04-23T00:41:45.179Z,22.24
2019-04-23T00:42:44.602Z,22.23
2019-04-23T00:43:52.751Z,22.26
2019-04-23T00:44:51.551Z,22.30
2019-04-23T00:45:44.241Z,22.21
2019-04-23T00:47:40.142Z,22.26
2019-04-23T00:49:40.333Z,22.23
2019-04-23T00:50:44.959Z,22.27
2019-04-23T00:51:36.911Z,22.33
2019-04-23T00:52:41.713Z,22.33
2019-04-23T00:53:32.655Z,22.21
2019-04-23T00:54:44.414Z,22.29
2019-04-23T00:55:44.729Z,22.33
2019-04-23T00:56:50.791Z,22.29
2019-04-23T00:57:43.980Z,22.21
2019-04-23T00:58:43.297Z,22.31
2019-04-23T00:59:48.286Z,22.31
2019-04-23T01:00:42.457Z,22.30
2019-04-23T01:01:42.706Z,22.27
2019-04-23T01:02:52.875Z,22.30
2019-04-23T01:03:29.391Z,22.26
2019-04-23T01:04:41.946Z,22.30
2019-04-23T01:06:39.090Z,22.31
2019-04-23T01:07:40.391Z,22.31
2019-04-23T01:08:36.798Z,22.29
2019-04-23T01:09:39.305Z,22.31
2019-04-23T01:10:46.547Z,22.31
2019-04-23T01:11:39.359Z,22.39
2019-04-23T01:14:42.622Z,22.35
2019-04-23T01:15:39.705Z,22.31
2019-04-23T01:16:37.400Z,22.42
2019-04-23T01:17:40.586Z,22.31
2019-04-23T01:18:48.549Z,22.39
2019-04-23T01:19:37.187Z,22.29
2019-04-23T01:20:39.055Z,22.31
2019-04-23T01:21:18.126Z,22.33
2019-04-23T01:22:16.670Z,22.33
2019-04-23T01:23:16.096Z,22.35
2019-04-23T01:24:20.328Z,22.33
2019-04-23T01:25:24.464Z,22.27
2019-04-23T01:26:35.600Z,22.35
2019-04-23T01:28:50.278Z,22.30
2019-04-23T01:29:42.940Z,22.35
2019-04-23T01:30:40.908Z,22.35
2019-04-23T01:31:42.812Z,22.29
2019-04-23T01:32:36.760Z,22.31
2019-04-23T01:33:47.203Z,22.33
2019-04-23T01:34:49.548Z,22.30
2019-04-23T01:35:43.072Z,22.38
2019-04-23T01:36:36.370Z,22.31
2019-04-23T01:38:49.952Z,22.31
2019-04-23T01:39:43.852Z,22.31
2019-04-23T01:40:42.476Z,22.31
2019-04-23T01:43:41.031Z,22.36
2019-04-23T01:44:42.097Z,22.31
2019-04-23T01:45:58.368Z,22.36
2019-04-23T01:46:43.391Z,22.33
2019-04-23T01:47:45.407Z,22.26
2019-04-23T01:48:48.147Z,22.33
2019-04-23T01:49:45.299Z,22.24
2019-04-23T01:51:46.711Z,22.27
2019-04-23T01:52:50.693Z,22.35
2019-04-23T01:53:48.152Z,22.35
2019-04-23T01:54:45.458Z,22.27
2019-04-23T01:55:43.989Z,22.20
2019-04-23T01:56:38.612Z,22.24
2019-04-23T01:57:47.162Z,22.24
2019-04-23T01:58:59.160Z,22.29
2019-04-23T01:59:49.062Z,22.23
2019-04-23T02:00:45.116Z,22.20
2019-04-23T02:01:44.638Z,22.20
2019-04-23T02:02:49.536Z,22.20
2019-04-23T02:03:41.137Z,22.20
2019-04-23T02:04:47.703Z,22.21
2019-04-23T02:05:42.233Z,22.21
2019-04-23T02:07:01.180Z,22.23
2019-04-23T02:07:44.465Z,22.23
2019-04-23T02:08:39.923Z,22.17
2019-04-23T02:09:48.521Z,22.21
2019-04-23T02:11:47.120Z,22.06
2019-04-23T02:12:53.612Z,22.14
2019-04-23T02:13:42.068Z,22.14
2019-04-23T02:14:41.586Z,22.09
2019-04-23T02:15:42.430Z,22.11
2019-04-23T02:16:44.141Z,22.12
2019-04-23T02:17:46.748Z,22.17
2019-04-23T02:18:45.396Z,22.04
2019-04-23T02:19:46.856Z,22.09
2019-04-23T02:20:44.371Z,22.14
2019-04-23T02:21:47.384Z,22.08
2019-04-23T02:22:51.566Z,22.17
2019-04-23T02:23:44.389Z,22.19
2019-04-23T02:24:52.694Z,22.14
2019-04-23T02:27:46.972Z,22.20
2019-04-23T02:28:49.551Z,22.11
2019-04-23T02:29:51.348Z,22.12
2019-04-23T02:30:59.845Z,22.17
2019-04-23T02:33:08.484Z,22.17
2019-04-23T02:35:14.102Z,22.15
2019-04-23T02:35:55.663Z,22.09
2019-04-23T02:36:57.705Z,21.99
2019-04-23T02:38:02.979Z,22.04
2019-04-23T02:38:52.360Z,22.04
2019-04-23T02:41:54.302Z,22.02
2019-04-23T02:43:01.243Z,22.02
2019-04-23T02:43:44.229Z,22.01
2019-04-23T02:44:45.584Z,21.99
2019-04-23T02:45:56.967Z,22.01
2019-04-23T02:46:54.088Z,21.99
2019-04-23T02:47:55.520Z,21.96
2019-04-23T02:49:04.976Z,21.99
2019-04-23T02:50:04.212Z,21.93
2019-04-23T02:50:54.216Z,22.05
2019-04-23T02:51:51.034Z,21.91
2019-04-23T02:52:49.652Z,21.96
2019-04-23T02:54:51.069Z,21.96
2019-04-23T02:56:15.291Z,22.01
2019-04-23T02:56:59.789Z,21.99
2019-04-23T02:57:54.135Z,21.91
2019-04-23T02:58:57.678Z,21.93
2019-04-23T03:01:07.213Z,21.98
2019-04-23T03:01:46.518Z,21.98
2019-04-23T03:03:59.765Z,21.98
2019-04-23T03:07:54.203Z,22.01
2019-04-23T03:10:57.038Z,21.94
2019-04-23T03:11:47.897Z,21.98
2019-04-23T03:12:48.600Z,21.99
2019-04-23T03:14:50.639Z,21.91
2019-04-23T03:16:53.251Z,21.96
2019-04-23T03:18:00.574Z,22.02
2019-04-23T03:19:49.800Z,21.99
2019-04-23T03:20:59.156Z,22.05
2019-04-23T03:21:51.972Z,22.04
2019-04-23T03:22:55.981Z,21.99
2019-04-23T03:25:47.845Z,22.04
2019-04-23T03:26:57.454Z,22.02
2019-04-23T03:27:46.026Z,22.04
2019-04-23T03:31:57.672Z,22.02
2019-04-23T03:34:19.603Z,21.98
2019-04-23T03:37:46.355Z,22.01
2019-04-23T03:39:56.845Z,21.99
2019-04-23T03:40:48.240Z,22.01
2019-04-23T03:41:50.446Z,22.01
2019-04-23T03:42:47.392Z,22.04
2019-04-23T03:43:45.410Z,22.02
2019-04-23T03:45:58.961Z,22.06
2019-04-23T03:46:41.978Z,22.02
2019-04-23T03:48:47.278Z,22.02
2019-04-23T03:50:04.556Z,22.04
2019-04-23T03:50:41.325Z,22.01
2019-04-23T03:51:51.511Z,22.04
2019-04-23T03:55:06.264Z,21.98
2019-04-23T03:57:03.273Z,22.01
2019-04-23T03:58:08.141Z,22.02
2019-04-23T04:02:00.699Z,21.98
2019-04-23T04:04:14.826Z,22.06
2019-04-23T04:06:03.361Z,22.04
2019-04-23T04:08:53.014Z,22.01
2019-04-23T04:09:47.580Z,22.05
2019-04-23T04:10:52.391Z,21.99
2019-04-23T04:11:33.458Z,22.05
2019-04-23T04:12:45.977Z,22.06
2019-04-23T04:13:50.471Z,21.99
2019-04-23T04:15:06.050Z,22.02
2019-04-23T04:16:53.669Z,21.99
2019-04-23T04:17:50.365Z,22.06
2019-04-23T04:18:57.410Z,22.04
2019-04-23T04:20:53.822Z,22.02
2019-04-23T04:21:53.003Z,22.05
2019-04-23T04:23:51.413Z,22.01
2019-04-23T04:24:48.261Z,21.94
2019-04-23T04:25:48.683Z,21.99
2019-04-23T04:26:51.459Z,21.94
2019-04-23T04:27:58.161Z,21.98
2019-04-23T04:28:51.453Z,22.04
2019-04-23T04:30:54.276Z,22.01
2019-04-23T04:31:52.206Z,22.02
2019-04-23T04:32:56.531Z,21.98
2019-04-23T04:34:00.740Z,22.04
2019-04-23T04:35:12.498Z,22.01
2019-04-23T04:35:47.395Z,21.96
2019-04-23T04:37:11.748Z,21.99
2019-04-23T04:38:46.738Z,22.01
2019-04-23T04:39:59.263Z,21.99
2019-04-23T04:41:05.645Z,22.04
2019-04-23T04:41:55.416Z,22.01
2019-04-23T04:42:54.466Z,22.04
2019-04-23T04:44:47.349Z,22.04
2019-04-23T04:46:04.620Z,22.04
2019-04-23T04:46:50.112Z,22.01
2019-04-23T04:48:00.755Z,22.04
2019-04-23T04:50:50.665Z,22.04
2019-04-23T04:54:30.819Z,22.04
2019-04-23T04:55:54.870Z,22.02
2019-04-23T04:56:42.674Z,21.98
2019-04-23T04:57:58.562Z,21.99
2019-04-23T04:58:58.457Z,22.06
2019-04-23T04:59:53.926Z,21.99
2019-04-23T05:01:51.679Z,22.02
2019-04-23T05:01:52.211Z,22.01
2019-04-23T05:03:04.761Z,22.01
2019-04-23T05:04:07.393Z,21.99
2019-04-23T05:06:11.776Z,22.04
2019-04-23T05:06:51.216Z,21.98
2019-04-23T05:08:47.996Z,22.04
2019-04-23T05:10:07.526Z,22.01
2019-04-23T05:10:51.597Z,21.99
2019-04-23T05:11:45.753Z,22.02
2019-04-23T05:13:49.785Z,22.05
2019-04-23T05:14:54.574Z,22.05
2019-04-23T05:15:48.071Z,22.09
2019-04-23T05:16:45.431Z,22.08
2019-04-23T05:17:53.134Z,22.08
2019-04-23T05:19:56.721Z,22.14
2019-04-23T05:20:42.999Z,22.11
2019-04-23T05:21:55.638Z,22.12
2019-04-23T05:22:57.823Z,22.05
2019-04-23T05:24:39.902Z,22.08
2019-04-23T05:25:41.155Z,22.06
2019-04-23T05:26:39.506Z,22.04
2019-04-23T05:27:48.351Z,22.09
2019-04-23T05:28:49.213Z,22.14
2019-04-23T05:29:51.189Z,22.11
2019-04-23T05:30:44.562Z,22.24
2019-04-23T05:31:36.078Z,22.11
2019-04-23T05:32:43.148Z,22.04
2019-04-23T05:33:39.147Z,22.06
2019-04-23T05:34:40.088Z,21.96
2019-04-23T05:36:06.184Z,21.91
2019-04-23T05:36:45.720Z,21.90
2019-04-23T05:37:55.703Z,21.91
2019-04-23T05:38:59.457Z,21.82
2019-04-23T05:39:50.112Z,21.83
2019-04-23T05:40:49.808Z,21.75
2019-04-23T05:41:41.532Z,21.83
2019-04-23T05:42:44.532Z,21.75
2019-04-23T05:43:43.597Z,21.64
2019-04-23T05:44:43.159Z,21.52
2019-04-23T05:45:39.901Z,21.51
2019-04-23T05:46:42.961Z,21.45
2019-04-23T05:47:47.839Z,21.46
2019-04-23T05:48:40.522Z,21.37
2019-04-23T05:49:39.458Z,21.34
2019-04-23T05:52:46.316Z,21.34
2019-04-23T05:53:43.213Z,21.37
2019-04-23T05:54:44.674Z,21.36
2019-04-23T05:55:43.078Z,21.34
2019-04-23T05:56:38.773Z,21.38
2019-04-23T05:57:39.141Z,21.38
2019-04-23T05:58:48.589Z,21.36
2019-04-23T05:59:40.086Z,21.43
2019-04-23T06:00:45.511Z,21.34
2019-04-23T06:03:41.946Z,21.36
2019-04-23T06:07:11.322Z,21.45
2019-04-23T06:07:42.727Z,21.38
2019-04-23T06:08:39.124Z,21.43
2019-04-23T06:09:44.059Z,21.36
2019-04-23T06:10:39.586Z,21.43
2019-04-23T06:11:57.072Z,21.48
2019-04-23T06:12:37.046Z,21.48
2019-04-23T06:13:44.484Z,21.63
2019-04-23T06:15:40.241Z,21.56
2019-04-23T06:16:41.883Z,21.67
2019-04-23T06:17:43.954Z,21.56
2019-04-23T06:19:02.738Z,21.66
2019-04-23T06:19:36.633Z,21.67
2019-04-23T06:20:54.333Z,21.66
2019-04-23T06:21:54.869Z,21.74
2019-04-23T06:22:42.353Z,21.66
2019-04-23T06:23:48.064Z,21.74
2019-04-23T06:24:44.320Z,21.71
2019-04-23T06:25:59.651Z,21.75
2019-04-23T06:27:40.161Z,21.81
2019-04-23T06:28:44.067Z,21.75
2019-04-23T06:29:41.570Z,21.81
2019-04-23T06:31:46.000Z,21.86
2019-04-23T06:32:41.360Z,21.89
2019-04-23T06:33:41.415Z,21.85
2019-04-23T06:34:54.618Z,21.91
2019-04-23T06:35:42.061Z,21.86
2019-04-23T06:36:41.031Z,21.85
2019-04-23T06:38:09.563Z,21.83
2019-04-23T06:38:50.814Z,21.86
2019-04-23T06:39:42.643Z,21.83
2019-04-23T06:40:42.206Z,21.93
2019-04-23T06:41:44.489Z,21.83
2019-04-23T06:42:34.882Z,21.99
2019-04-23T06:43:47.148Z,21.90
2019-04-23T06:44:37.270Z,21.94
2019-04-23T06:45:37.526Z,21.96
2019-04-23T06:46:48.800Z,21.98
2019-04-23T06:47:35.901Z,21.99
2019-04-23T06:48:44.886Z,22.01
2019-04-23T06:50:41.762Z,22.02
2019-04-23T06:51:46.511Z,22.01
2019-04-23T06:52:31.429Z,21.98
2019-04-23T06:53:35.889Z,22.01
2019-04-23T06:54:42.446Z,22.02
2019-04-23T06:55:44.038Z,22.04
2019-04-23T06:56:43.447Z,21.99
2019-04-23T06:57:38.443Z,21.99
2019-04-23T06:58:37.625Z,21.99
2019-04-23T06:59:39.088Z,22.04
2019-04-23T07:00:42.011Z,21.98
2019-04-23T07:01:47.316Z,22.06
2019-04-23T07:02:39.127Z,22.01
2019-04-23T07:03:48.556Z,22.12
2019-04-23T07:04:41.065Z,22.08
2019-04-23T07:05:39.332Z,22.17
2019-04-23T07:07:21.598Z,22.08
2019-04-23T07:08:56.322Z,22.04
2019-04-23T07:09:35.265Z,22.06
2019-04-23T07:10:40.600Z,22.12
2019-04-23T07:11:47.895Z,22.15
2019-04-23T07:12:41.457Z,22.15
2019-04-23T07:13:50.745Z,22.11
2019-04-23T07:14:43.988Z,22.09
2019-04-23T07:16:41.454Z,22.09
2019-04-23T07:17:34.994Z,22.19
2019-04-23T07:18:36.456Z,22.17
2019-04-23T07:20:43.655Z,22.06
2019-04-23T07:21:33.553Z,22.12
2019-04-23T07:22:34.858Z,22.08
2019-04-23T07:23:44.926Z,22.19
2019-04-23T07:24:41.923Z,22.06
2019-04-23T07:25:39.031Z,22.17
2019-04-23T07:26:39.125Z,22.06
2019-04-23T07:27:37.773Z,22.08
2019-04-23T07:28:43.857Z,22.15
2019-04-23T07:29:40.889Z,22.20
2019-04-23T07:30:39.976Z,22.20
2019-04-23T07:31:42.009Z,22.15
2019-04-23T07:32:35.880Z,22.05
2019-04-23T07:33:43.945Z,22.15
2019-04-23T07:34:41.610Z,22.09
2019-04-23T07:35:43.424Z,22.12
2019-04-23T07:37:40.058Z,22.20
2019-04-23T07:38:47.442Z,22.15
2019-04-23T07:39:47.241Z,22.14
2019-04-23T07:41:03.826Z,22.19
2019-04-23T07:43:46.262Z,22.06
2019-04-23T07:44:42.414Z,22.06
2019-04-23T07:46:46.230Z,22.19
2019-04-23T07:47:31.359Z,22.08
2019-04-23T07:48:38.853Z,22.20
2019-04-23T07:49:37.802Z,22.21
2019-04-23T07:51:46.761Z,22.24
2019-04-23T07:52:40.796Z,22.24
2019-04-23T07:53:44.321Z,22.26
2019-04-23T07:55:49.621Z,22.29
2019-04-23T07:56:42.235Z,22.30
2019-04-23T07:57:40.069Z,22.23
2019-04-23T07:58:38.397Z,22.31
2019-04-23T07:59:44.048Z,22.31
2019-04-23T08:00:52.781Z,22.35
2019-04-23T08:01:34.490Z,22.42
2019-04-23T08:02:38.067Z,22.36
2019-04-23T08:04:44.626Z,22.45
2019-04-23T08:05:49.717Z,22.49
2019-04-23T08:06:40.037Z,22.57
2019-04-23T08:07:45.411Z,22.57
2019-04-23T08:08:37.898Z,22.57
2019-04-23T08:09:47.856Z,22.61
2019-04-23T08:10:46.743Z,22.61
2019-04-23T08:11:40.061Z,22.60
2019-04-23T08:12:37.403Z,22.60
2019-04-23T08:14:44.238Z,22.61
2019-04-23T08:15:41.431Z,22.57
2019-04-23T08:17:37.460Z,22.70
2019-04-23T08:18:45.133Z,22.70
2019-04-23T08:19:52.749Z,22.70
2019-04-23T08:20:42.242Z,22.72
2019-04-23T08:21:31.833Z,22.70
2019-04-23T08:22:40.692Z,22.70
2019-04-23T08:23:42.767Z,22.66
2019-04-23T08:24:45.403Z,22.72
2019-04-23T08:25:45.749Z,22.70
2019-04-23T08:26:40.307Z,22.72
2019-04-23T08:27:34.476Z,22.76
2019-04-23T08:28:52.102Z,22.72
2019-04-23T08:29:31.028Z,22.69
2019-04-23T08:30:42.724Z,22.69
2019-04-23T08:31:43.787Z,22.74
2019-04-23T08:32:27.852Z,22.74
2019-04-23T08:33:40.149Z,22.75
2019-04-23T08:35:45.429Z,22.75
2019-04-23T08:36:42.580Z,22.69
2019-04-23T08:37:54.418Z,22.75
2019-04-23T08:38:45.005Z,22.72
2019-04-23T08:39:38.310Z,22.78
2019-04-23T08:40:43.195Z,22.81
2019-04-23T08:41:44.641Z,22.76
2019-04-23T08:42:45.706Z,22.72
2019-04-23T08:46:50.991Z,22.72
2019-04-23T08:47:52.612Z,22.75
2019-04-23T08:48:41.723Z,22.74
2019-04-23T08:49:43.246Z,22.81
2019-04-23T08:50:41.872Z,22.78
2019-04-23T08:52:36.962Z,22.78
2019-04-23T08:54:48.308Z,22.78
2019-04-23T08:55:46.877Z,22.74
2019-04-23T08:56:42.811Z,22.76
2019-04-23T08:57:41.250Z,22.76
2019-04-23T08:58:41.569Z,22.74
2019-04-23T09:00:45.533Z,22.76
2019-04-23T09:01:48.061Z,22.78
2019-04-23T09:03:34.259Z,22.82
2019-04-23T09:04:49.544Z,22.74
2019-04-23T09:05:49.441Z,22.76
2019-04-23T09:06:36.606Z,22.72
2019-04-23T09:07:35.904Z,22.78
2019-04-23T09:08:36.921Z,22.75
2019-04-23T09:09:46.468Z,22.79
2019-04-23T09:10:42.324Z,22.72
2019-04-23T09:11:54.305Z,22.81
2019-04-23T09:13:53.388Z,22.70
2019-04-23T09:14:38.276Z,22.76
2019-04-23T09:16:44.766Z,22.72
2019-04-23T09:17:40.549Z,22.86
2019-04-23T09:18:37.287Z,22.86
2019-04-23T09:19:55.937Z,22.88
2019-04-23T09:20:31.371Z,22.91
2019-04-23T09:21:40.538Z,22.82
2019-04-23T09:22:37.339Z,22.91
2019-04-23T09:23:44.113Z,22.89
2019-04-23T09:24:44.448Z,22.89
2019-04-23T09:25:44.071Z,22.91
2019-04-23T09:26:40.889Z,22.94
2019-04-23T09:27:54.742Z,22.88
2019-04-23T09:29:47.476Z,22.91
2019-04-23T09:30:42.240Z,22.88
2019-04-23T09:32:00.664Z,22.93
2019-04-23T09:32:36.335Z,22.99
2019-04-23T09:33:50.074Z,23.03
2019-04-23T09:34:43.255Z,23.03
2019-04-23T09:35:42.754Z,23.00
2019-04-23T09:36:40.548Z,23.06
2019-04-23T09:37:42.234Z,23.06
2019-04-23T09:38:38.357Z,23.01
2019-04-23T09:39:43.277Z,22.99
2019-04-23T09:41:03.121Z,23.03
2019-04-23T09:41:31.331Z,23.06
2019-04-23T09:43:36.943Z,23.09
2019-04-23T09:46:36.092Z,23.14
2019-04-23T09:47:46.325Z,23.06
2019-04-23T09:48:49.051Z,23.09
2019-04-23T09:49:55.511Z,23.16
2019-04-23T09:51:47.644Z,23.11
2019-04-23T09:52:48.386Z,23.15
2019-04-23T09:53:33.885Z,23.11
2019-04-23T09:54:51.326Z,23.14
2019-04-23T09:55:38.916Z,23.19
2019-04-23T09:56:41.189Z,23.19
2019-04-23T09:57:43.138Z,23.15
2019-04-23T09:58:37.946Z,23.14
2019-04-23T10:01:32.870Z,23.23
2019-04-23T10:02:29.101Z,23.21
2019-04-23T10:03:26.820Z,23.26
2019-04-23T10:04:22.176Z,23.25
2019-04-23T10:05:26.230Z,23.21
2019-04-23T10:06:19.142Z,23.21
2019-04-23T10:07:25.167Z,23.25
2019-04-23T10:08:19.308Z,23.26
2019-04-23T10:09:12.684Z,23.22
2019-04-23T10:10:10.347Z,23.19
2019-04-23T10:11:11.320Z,23.25
2019-04-23T10:12:11.563Z,23.22
2019-04-23T10:13:11.505Z,23.25
2019-04-23T10:14:10.483Z,23.22
2019-04-23T10:15:18.786Z,23.25
2019-04-23T10:16:15.237Z,23.23
2019-04-23T10:17:10.977Z,23.23
2019-04-23T10:18:10.092Z,23.25
2019-04-23T10:19:10.060Z,23.29
2019-04-23T10:20:11.026Z,23.26
2019-04-23T10:21:11.276Z,23.34
2019-04-23T10:22:11.263Z,23.23
2019-04-23T10:23:10.372Z,23.31
2019-04-23T10:24:09.870Z,23.18
2019-04-23T10:25:10.980Z,23.26
2019-04-23T10:26:10.128Z,23.26
2019-04-23T10:27:10.010Z,23.32
2019-04-23T10:28:11.367Z,23.26
2019-04-23T10:29:09.953Z,23.23
2019-04-23T10:30:10.108Z,23.35
2019-04-23T10:31:09.797Z,23.31
2019-04-23T10:32:11.475Z,23.29
2019-04-23T10:33:09.797Z,23.32
2019-04-23T10:34:10.377Z,23.37
2019-04-23T10:35:20.531Z,23.39
2019-04-23T10:36:14.955Z,23.26
2019-04-23T10:37:11.415Z,23.23
2019-04-23T10:38:14.256Z,23.38
2019-04-23T10:39:17.826Z,23.39
2019-04-23T10:40:15.342Z,23.31
2019-04-23T10:41:12.040Z,23.22
2019-04-23T10:42:09.980Z,23.31
2019-04-23T10:43:11.076Z,23.22
2019-04-23T10:44:10.946Z,23.25
2019-04-23T10:45:24.046Z,23.38
2019-04-23T10:46:31.129Z,23.31
2019-04-23T10:47:38.560Z,23.34
2019-04-23T10:49:47.709Z,23.34
2019-04-23T10:50:46.533Z,23.23
2019-04-23T10:51:53.499Z,23.31
2019-04-23T10:52:43.375Z,23.32
2019-04-23T10:53:37.862Z,23.35
2019-04-23T10:55:46.806Z,23.35
2019-04-23T10:56:40.818Z,23.35
2019-04-23T10:57:31.102Z,23.37
2019-04-23T10:58:39.919Z,23.34
2019-04-23T10:59:40.273Z,23.38
2019-04-23T11:00:37.557Z,23.29
2019-04-23T11:01:35.873Z,23.37
2019-04-23T11:02:39.071Z,23.34
2019-04-23T11:03:49.289Z,23.42
2019-04-23T11:04:54.435Z,23.37
2019-04-23T11:05:53.818Z,23.41
2019-04-23T11:06:47.192Z,23.39
2019-04-23T11:08:38.365Z,23.38
2019-04-23T11:09:50.032Z,23.42
2019-04-23T11:10:39.055Z,23.45
2019-04-23T11:11:40.226Z,23.38
2019-04-23T11:13:40.349Z,23.44
2019-04-23T11:14:47.370Z,23.59
2019-04-23T11:16:49.222Z,23.50
2019-04-23T11:18:55.390Z,23.49
2019-04-23T11:20:52.171Z,23.52
2019-04-23T11:21:47.972Z,23.47
2019-04-23T11:22:45.188Z,23.50
2019-04-23T11:23:43.056Z,23.53
2019-04-23T11:24:41.582Z,23.50
2019-04-23T11:28:00.442Z,23.52
2019-04-23T11:29:44.379Z,23.52
2019-04-23T11:30:36.603Z,23.57
2019-04-23T11:31:45.014Z,23.54
2019-04-23T11:33:39.594Z,23.59
2019-04-23T11:37:56.032Z,23.64
2019-04-23T11:39:45.219Z,23.57
2019-04-23T11:40:33.909Z,23.68
2019-04-23T11:41:47.127Z,23.67
2019-04-23T11:42:44.361Z,23.67
2019-04-23T11:45:50.660Z,23.74
2019-04-23T11:48:14.777Z,23.74
2019-04-23T11:48:51.942Z,23.68
2019-04-23T11:50:03.933Z,23.72
2019-04-23T11:51:05.094Z,23.87
2019-04-23T11:53:41.270Z,23.82
2019-04-23T11:54:35.503Z,23.87
2019-04-23T11:57:08.843Z,23.87
2019-04-23T12:00:07.674Z,23.92
2019-04-23T12:00:51.190Z,23.90
2019-04-23T12:01:46.457Z,23.93
2019-04-23T12:02:45.959Z,23.94
2019-04-23T12:03:45.663Z,24.00
2019-04-23T12:04:45.315Z,24.04
2019-04-23T12:05:41.485Z,24.04
2019-04-23T12:06:42.439Z,24.00
2019-04-23T12:07:36.138Z,24.08
2019-04-23T12:08:43.084Z,24.02
2019-04-23T12:09:47.034Z,24.00
2019-04-23T12:12:44.679Z,24.02
2019-04-23T12:13:48.964Z,24.14
2019-04-23T12:14:40.536Z,24.08
2019-04-23T12:15:37.920Z,24.21
2019-04-23T12:16:49.135Z,24.19
2019-04-23T12:17:51.240Z,24.24
2019-04-23T12:18:43.652Z,24.19
2019-04-23T12:20:37.791Z,24.21
2019-04-23T12:21:48.591Z,24.27
2019-04-23T12:22:35.428Z,24.23
2019-04-23T12:23:48.376Z,24.23
2019-04-23T12:25:17.392Z,24.27
2019-04-23T12:26:44.383Z,24.27
2019-04-23T12:28:53.654Z,24.33
2019-04-23T12:29:37.342Z,24.37
2019-04-23T12:30:40.787Z,24.34
2019-04-23T12:31:38.362Z,24.42
2019-04-23T12:33:44.147Z,24.37
2019-04-23T12:34:44.296Z,24.37
2019-04-23T12:35:35.582Z,24.48
2019-04-23T12:38:33.294Z,24.45
2019-04-23T12:39:42.515Z,24.44
2019-04-23T12:40:51.233Z,24.45
2019-04-23T12:43:30.180Z,24.53
2019-04-23T12:44:44.167Z,24.59
2019-04-23T12:46:46.145Z,24.53
2019-04-23T12:48:50.893Z,24.48
2019-04-23T12:51:43.433Z,24.48
2019-04-23T12:52:44.275Z,24.49
2019-04-23T12:53:37.902Z,24.44
2019-04-23T12:54:51.086Z,24.45
2019-04-23T12:56:48.823Z,24.41
2019-04-23T12:58:29.513Z,24.46
2019-04-23T12:59:36.757Z,24.49
2019-04-23T13:01:42.471Z,24.55
2019-04-23T13:02:44.597Z,24.63
2019-04-23T13:03:33.018Z,24.68
2019-04-23T13:04:45.500Z,24.60
2019-04-23T13:06:36.919Z,24.80
2019-04-23T13:07:38.639Z,24.87
2019-04-23T13:08:41.360Z,24.82
2019-04-23T13:10:38.791Z,24.97
2019-04-23T13:11:47.998Z,24.93
2019-04-23T13:12:47.995Z,25.02
2019-04-23T13:13:42.537Z,25.17
2019-04-23T13:14:42.016Z,25.12
2019-04-23T13:15:34.772Z,25.11
2019-04-23T13:17:47.406Z,25.20
2019-04-23T13:18:41.874Z,25.16
2019-04-23T13:19:49.544Z,25.23
2019-04-23T13:20:35.325Z,25.22
2019-04-23T13:22:45.324Z,25.24
2019-04-23T13:23:37.464Z,25.29
2019-04-23T13:25:41.942Z,25.44
2019-04-23T13:26:30.839Z,25.51
2019-04-23T13:27:49.723Z,25.46
2019-04-23T13:29:43.424Z,25.57
2019-04-23T13:31:29.322Z,25.59
2019-04-23T13:32:38.873Z,25.71
2019-04-23T13:33:38.917Z,25.75
2019-04-23T13:34:51.109Z,25.83
2019-04-23T13:35:45.564Z,25.86
2019-04-23T13:36:39.508Z,25.82
2019-04-23T13:37:42.863Z,25.69
2019-04-23T13:38:41.824Z,25.60
2019-04-23T13:39:39.634Z,25.69
2019-04-23T13:40:39.410Z,25.57
2019-04-23T13:41:37.502Z,25.54
2019-04-23T13:42:45.218Z,25.48
2019-04-23T13:44:42.722Z,25.49
2019-04-23T13:46:40.978Z,25.35
2019-04-23T13:48:34.489Z,25.45
2019-04-23T13:49:46.607Z,25.31
2019-04-23T13:50:41.970Z,25.29
2019-04-23T13:51:39.741Z,25.23
2019-04-23T13:54:56.357Z,25.04
2019-04-23T13:55:36.281Z,24.98
2019-04-23T13:57:04.668Z,24.89
2019-04-23T13:58:43.327Z,24.84
2019-04-23T13:59:44.467Z,24.82
2019-04-23T14:01:32.385Z,24.67
2019-04-23T14:02:52.531Z,24.70
2019-04-23T14:05:41.562Z,24.67
2019-04-23T14:06:37.367Z,24.55
2019-04-23T14:07:38.461Z,24.60
2019-04-23T14:09:45.466Z,24.49
2019-04-23T14:11:32.408Z,24.45
2019-04-23T14:12:43.689Z,24.45
2019-04-23T14:13:47.675Z,24.39
2019-04-23T14:14:47.907Z,24.42
2019-04-23T14:15:47.923Z,24.34
2019-04-23T14:16:39.455Z,24.37
2019-04-23T14:17:47.123Z,24.33
2019-04-23T14:18:53.925Z,24.31
2019-04-23T14:19:41.930Z,24.41
2019-04-23T14:20:34.865Z,24.27
2019-04-23T14:21:37.237Z,24.27
2019-04-23T14:23:54.062Z,24.26
2019-04-23T14:24:48.327Z,24.26
2019-04-23T14:25:40.791Z,24.23
2019-04-23T14:26:35.148Z,24.18
2019-04-23T14:27:43.102Z,24.16
2019-04-23T14:29:39.418Z,24.15
2019-04-23T14:31:35.530Z,24.08
2019-04-23T14:32:34.852Z,24.12
2019-04-23T14:34:01.348Z,24.12
2019-04-23T14:34:43.892Z,24.08
2019-04-23T14:35:40.597Z,24.05
2019-04-23T14:36:39.315Z,24.05
2019-04-23T14:37:54.766Z,24.00
2019-04-23T14:38:54.484Z,23.96
2019-04-23T14:39:40.764Z,24.05
2019-04-23T14:41:53.013Z,23.97
2019-04-23T14:42:49.775Z,23.97
2019-04-23T14:43:40.605Z,23.93
2019-04-23T14:44:31.217Z,23.92
2019-04-23T14:47:38.029Z,23.87
2019-04-23T14:48:38.043Z,23.87
2019-04-23T14:49:44.885Z,23.77
2019-04-23T14:50:41.313Z,23.77
2019-04-23T14:51:39.720Z,23.77
2019-04-23T14:52:41.290Z,23.75
2019-04-23T14:55:15.001Z,23.69
2019-04-23T14:55:56.962Z,23.74
2019-04-23T14:56:52.314Z,23.75
2019-04-23T14:57:40.299Z,23.72
2019-04-23T14:59:31.964Z,23.81
2019-04-23T15:00:43.175Z,23.68
2019-04-23T15:01:50.693Z,23.71
2019-04-23T15:03:40.251Z,23.69
2019-04-23T15:04:41.175Z,23.67
2019-04-23T15:07:37.515Z,23.69
2019-04-23T15:08:50.277Z,23.63
2019-04-23T15:09:43.875Z,23.67
2019-04-23T15:10:41.109Z,23.63
2019-04-23T15:12:42.523Z,23.68
2019-04-23T15:13:38.590Z,23.57
2019-04-23T15:14:46.214Z,23.63
2019-04-23T15:15:39.121Z,23.54
2019-04-23T15:16:40.581Z,23.62
2019-04-23T15:17:34.001Z,23.54
2019-04-23T15:18:50.580Z,23.56
2019-04-23T15:19:40.430Z,23.56
2019-04-23T15:20:39.239Z,23.54
2019-04-23T15:22:42.196Z,23.49
2019-04-23T15:27:45.684Z,23.52
2019-04-23T15:28:12.163Z,23.54
2019-04-23T15:29:26.815Z,23.52
2019-04-23T15:30:35.718Z,23.50
2019-04-23T15:31:39.452Z,23.53
2019-04-23T15:32:47.167Z,23.50
2019-04-23T15:33:44.873Z,23.39
2019-04-23T15:34:30.534Z,23.52
2019-04-23T15:36:04.180Z,23.53
2019-04-23T15:37:58.563Z,23.54
2019-04-23T15:38:42.735Z,23.54
2019-04-23T15:39:56.706Z,23.50
2019-04-23T15:40:36.799Z,23.54
2019-04-23T15:41:38.146Z,23.53
2019-04-23T15:43:41.577Z,23.50
2019-04-23T15:44:32.336Z,23.52
2019-04-23T15:45:39.973Z,23.53
2019-04-23T15:47:45.783Z,23.52
2019-04-23T15:49:05.599Z,23.53
2019-04-23T15:49:35.321Z,23.53
2019-04-23T15:50:38.531Z,23.50
2019-04-23T15:53:30.849Z,23.53
2019-04-23T15:54:42.974Z,23.62
2019-04-23T15:55:35.142Z,23.52
2019-04-23T15:57:54.170Z,23.54
2019-04-23T15:58:46.221Z,23.57
2019-04-23T15:59:55.985Z,23.49
2019-04-23T16:00:31.630Z,23.52
2019-04-23T16:01:34.650Z,23.62
2019-04-23T16:02:07.473Z,23.50
2019-04-23T16:03:06.979Z,23.53
2019-04-23T16:04:07.284Z,23.62